createdAt,value
2018-09-12T00:01:08.985Z,4.87
2018-09-12T00:06:12.876Z,6.50
2018-09-12T00:11:16.569Z,9.87
2018-09-12T00:16:20.566Z,5.80
2018-09-12T00:21:24.716Z,4.10
2018-09-12T00:26:28.485Z,7.17
2018-09-12T00:31:32.563Z,5.50
2018-09-12T00:36:36.283Z,5.70
2018-09-12T00:41:40.309Z,5.00
2018-09-12T00:46:44.138Z,3.63
2018-09-12T00:51:47.859Z,4.87
2018-09-12T00:56:51.582Z,4.97
2018-09-12T01:01:55.311Z,3.53
2018-09-12T01:06:59.461Z,5.63
2018-09-12T01:12:03.490Z,5.33
2018-09-12T01:33:49.830Z,4.03
2018-09-12T02:11:41.256Z,5.03
2018-09-12T02:16:45.165Z,5.23
2018-09-12T02:21:49.115Z,5.10
2018-09-12T02:26:52.986Z,5.57
2018-09-12T02:31:56.952Z,4.97
2018-09-12T02:37:00.836Z,4.90
2018-09-12T02:42:04.572Z,6.23
2018-09-12T02:47:13.499Z,4.60
2018-09-12T02:52:17.252Z,6.77
2018-09-12T02:57:21.144Z,7.80
2018-09-12T03:02:25.134Z,5.03
2018-09-12T03:23:53.739Z,5.73
2018-09-12T03:29:09.526Z,6.00
2018-09-12T03:34:13.476Z,3.83
2018-09-12T03:39:21.023Z,7.17
2018-09-12T03:44:24.968Z,5.27
2018-09-12T03:49:41.857Z,6.00
2018-09-12T03:54:45.451Z,6.47
2018-09-12T03:59:49.167Z,6.07
2018-09-12T04:04:53.373Z,5.17
2018-09-12T04:09:57.760Z,4.10
2018-09-12T04:15:01.657Z,6.13
2018-09-12T04:20:05.624Z,4.57
2018-09-12T04:25:09.767Z,4.57
2018-09-12T04:30:13.501Z,5.63
2018-09-12T04:35:17.124Z,5.53
2018-09-12T04:40:21.151Z,5.40
2018-09-12T04:45:25.355Z,6.13
2018-09-12T04:50:29.301Z,5.27
2018-09-12T04:55:33.195Z,7.67
2018-09-12T05:00:36.840Z,6.60
2018-09-12T05:05:40.628Z,7.43
2018-09-12T05:10:44.465Z,6.40
2018-09-12T05:15:48.323Z,6.77
2018-09-12T05:20:52.013Z,6.27
2018-09-12T05:25:55.647Z,6.27
2018-09-12T05:30:59.471Z,6.10
2018-09-12T05:36:03.673Z,6.30
2018-09-12T05:41:07.327Z,6.57
2018-09-12T05:46:11.252Z,6.57
2018-09-12T05:51:14.884Z,7.37
2018-09-12T05:56:18.787Z,8.33
2018-09-12T06:01:22.700Z,6.67
2018-09-12T06:06:26.614Z,7.07
2018-09-12T06:11:30.659Z,6.30
2018-09-12T06:16:34.524Z,7.33
2018-09-12T06:21:38.220Z,6.33
2018-09-12T06:26:42.743Z,6.77
2018-09-12T06:31:46.476Z,8.10
2018-09-12T06:37:03.158Z,6.90
2018-09-12T06:42:06.968Z,5.80
2018-09-12T06:47:11.203Z,9.60
2018-09-12T06:52:40.061Z,9.80
2018-09-12T06:57:44.210Z,10.30
2018-09-12T07:02:48.123Z,8.17
2018-09-12T07:07:51.957Z,8.13
2018-09-12T07:12:55.856Z,11.00
2018-09-12T07:17:59.890Z,10.73
2018-09-12T07:23:04.006Z,13.77
2018-09-12T07:28:07.827Z,13.37
2018-09-12T07:33:11.593Z,11.77
2018-09-12T07:43:52.611Z,11.70
2018-09-12T07:48:56.247Z,15.07
2018-09-12T07:54:00.449Z,13.53
2018-09-12T08:04:36.552Z,13.50
2018-09-12T08:09:40.698Z,12.10
2018-09-12T08:14:44.663Z,16.10
2018-09-12T08:19:51.896Z,13.07
2018-09-12T08:25:07.939Z,11.80
2018-09-12T08:30:12.281Z,14.37
2018-09-12T08:35:17.581Z,16.53
2018-09-12T08:40:21.423Z,15.57
2018-09-12T08:45:25.244Z,15.13
2018-09-12T08:50:29.270Z,12.20
2018-09-12T08:55:33.162Z,12.93
2018-09-12T09:00:37.100Z,11.33
2018-09-12T09:05:41.284Z,11.50
2018-09-12T09:10:45.179Z,12.23
2018-09-12T09:15:49.033Z,13.93
2018-09-12T09:20:53.032Z,13.63
2018-09-12T09:25:56.985Z,11.83
2018-09-12T09:31:01.228Z,12.70
2018-09-12T09:36:05.342Z,14.27
2018-09-12T09:41:09.126Z,12.03
2018-09-12T09:46:13.196Z,15.07
2018-09-12T09:51:17.691Z,11.33
2018-09-12T09:56:21.632Z,11.23
2018-09-12T10:01:31.214Z,14.37
2018-09-12T10:06:40.899Z,10.93
2018-09-12T10:11:45.262Z,13.50
2018-09-12T10:16:51.121Z,9.40
2018-09-12T10:21:55.275Z,11.13
2018-09-12T10:26:59.408Z,10.20
2018-09-12T10:32:03.510Z,13.27
2018-09-12T10:37:07.354Z,10.33
2018-09-12T10:42:11.996Z,13.53
2018-09-12T10:47:15.797Z,11.90
2018-09-12T10:52:19.677Z,10.13
2018-09-12T10:57:23.443Z,13.03
2018-09-12T11:02:27.726Z,14.73
2018-09-12T11:13:16.500Z,15.07
2018-09-12T11:18:20.736Z,14.13
2018-09-12T11:23:25.058Z,14.07
2018-09-12T11:28:28.954Z,16.00
2018-09-12T11:33:33.144Z,15.03
2018-09-12T11:38:47.093Z,15.63
2018-09-12T11:43:51.498Z,15.53
2018-09-12T11:49:09.574Z,16.13
2018-09-12T11:54:13.293Z,15.77
2018-09-12T12:10:19.676Z,10.97
2018-09-12T12:15:23.659Z,8.87
2018-09-12T12:20:27.935Z,10.40
2018-09-12T12:25:32.163Z,10.10
2018-09-12T12:36:04.338Z,8.57
2018-09-12T12:41:08.166Z,7.03
2018-09-12T12:46:12.029Z,6.37
2018-09-12T12:51:15.839Z,6.70
2018-09-12T12:56:19.533Z,6.57
2018-09-12T13:01:23.843Z,7.70
2018-09-12T13:06:27.651Z,6.93
2018-09-12T13:11:31.256Z,7.37
2018-09-12T13:16:35.192Z,4.40
2018-09-12T13:21:39.364Z,5.57
2018-09-12T13:26:43.703Z,3.67
2018-09-12T13:31:47.895Z,3.63
2018-09-12T13:36:55.206Z,1.83
2018-09-12T13:41:59.307Z,2.10
2018-09-12T13:47:03.137Z,4.97
2018-09-12T13:52:06.966Z,3.00
2018-09-12T13:57:11.169Z,2.60
2018-09-12T14:02:15.774Z,7.13
2018-09-12T14:07:20.218Z,4.63
2018-09-12T14:12:24.329Z,4.77
2018-09-12T14:17:28.191Z,5.53
2018-09-12T14:22:31.863Z,7.07
2018-09-12T14:27:35.571Z,5.83
2018-09-12T14:38:13.498Z,2.77
2018-09-12T14:43:17.476Z,3.27
2018-09-12T14:48:21.217Z,4.67
2018-09-12T14:53:25.148Z,3.23
2018-09-12T14:58:29.355Z,2.83
2018-09-12T15:03:33.186Z,1.40
2018-09-12T15:08:37.386Z,2.27
2018-09-12T15:13:41.651Z,2.10
2018-09-12T15:18:47.823Z,2.93
2018-09-12T15:23:51.746Z,2.63
2018-09-12T15:39:51.964Z,2.87
2018-09-12T15:44:56.040Z,2.80
2018-09-12T15:50:00.185Z,4.27
2018-09-12T15:55:04.328Z,3.80
2018-09-12T16:00:08.521Z,4.37
2018-09-12T16:05:12.281Z,4.50
2018-09-12T16:10:16.137Z,5.07
2018-09-12T16:15:19.954Z,4.80
2018-09-12T16:20:24.093Z,5.37
2018-09-12T16:25:27.931Z,4.77
2018-09-12T16:30:31.536Z,4.97
2018-09-12T16:35:35.367Z,5.27
2018-09-12T16:40:39.482Z,6.17
2018-09-12T16:45:43.377Z,6.63
2018-09-12T16:50:48.148Z,5.80
2018-09-12T16:55:52.606Z,5.67
2018-09-12T17:00:56.288Z,6.83
2018-09-12T17:06:00.501Z,5.80
2018-09-12T17:11:04.120Z,6.13
2018-09-12T17:16:08.036Z,6.10
2018-09-12T17:21:11.977Z,6.00
2018-09-12T17:26:15.933Z,7.93
2018-09-12T17:31:19.793Z,5.50
2018-09-12T17:36:26.092Z,5.70
2018-09-12T17:41:29.918Z,5.90
2018-09-12T17:46:33.954Z,6.60
2018-09-12T17:51:37.883Z,6.17
2018-09-12T17:56:41.612Z,5.63
2018-09-12T18:01:45.381Z,6.80
2018-09-12T18:06:49.115Z,5.30
2018-09-12T18:11:52.929Z,6.20
2018-09-12T18:17:03.031Z,6.43
2018-09-12T18:22:31.315Z,6.63
2018-09-12T18:27:35.050Z,6.33
2018-09-12T18:32:39.142Z,6.07
2018-09-12T18:37:43.151Z,6.57
2018-09-12T18:42:46.965Z,6.73
2018-09-12T18:53:28.580Z,6.57
2018-09-12T18:58:32.725Z,7.83
2018-09-12T19:03:36.604Z,7.77
2018-09-12T19:08:40.320Z,9.13
2018-09-12T19:13:48.963Z,8.30
2018-09-12T19:18:52.942Z,8.73
2018-09-12T19:23:56.794Z,9.10
2018-09-12T19:29:10.858Z,8.23
2018-09-12T19:34:15.482Z,9.13
2018-09-12T19:39:33.647Z,8.57
2018-09-12T19:44:38.548Z,9.77
2018-09-12T19:49:42.364Z,9.80
2018-09-12T19:54:46.517Z,10.83
2018-09-12T19:59:50.269Z,10.17
2018-09-12T20:04:53.926Z,12.53
2018-09-12T20:09:57.684Z,11.43
2018-09-12T20:15:01.733Z,10.67
2018-09-12T20:20:05.726Z,11.07
2018-09-12T20:25:15.704Z,10.33
2018-09-12T20:30:19.523Z,11.00
2018-09-12T20:35:23.284Z,10.97
2018-09-12T20:40:27.211Z,13.43
2018-09-12T20:45:30.848Z,12.43
2018-09-12T20:50:34.715Z,11.93
2018-09-12T20:55:38.596Z,12.63
2018-09-12T21:00:42.678Z,12.27
2018-09-12T21:05:46.663Z,13.17
2018-09-12T21:10:50.545Z,13.67
2018-09-12T21:15:54.136Z,13.77
2018-09-12T21:20:58.032Z,13.13
2018-09-12T21:26:01.723Z,15.80
2018-09-12T21:31:05.367Z,13.97
2018-09-12T21:36:09.021Z,12.90
2018-09-12T21:41:12.916Z,13.80
2018-09-12T21:46:16.674Z,13.40
2018-09-12T21:51:20.775Z,14.30
2018-09-12T21:56:24.435Z,14.27
2018-09-12T22:01:28.812Z,14.03
2018-09-12T22:06:32.512Z,13.50
2018-09-12T22:11:36.177Z,13.40
2018-09-12T22:16:40.542Z,13.87
2018-09-12T22:21:44.805Z,11.37
2018-09-12T22:27:02.348Z,12.10
2018-09-12T22:32:06.244Z,10.20
2018-09-12T22:37:10.184Z,10.37
2018-09-12T22:42:14.369Z,10.77
2018-09-12T22:47:18.456Z,10.27
2018-09-12T22:58:10.306Z,13.37
2018-09-12T23:03:14.517Z,12.70
2018-09-12T23:08:36.268Z,12.40
2018-09-12T23:13:40.096Z,12.20
2018-09-12T23:18:44.864Z,11.77
2018-09-12T23:23:49.329Z,12.50
2018-09-12T23:28:59.334Z,15.07
2018-09-12T23:34:03.541Z,12.10
2018-09-12T23:39:09.922Z,11.67
2018-09-12T23:44:13.760Z,11.37
2018-09-12T23:49:17.635Z,11.23
2018-09-12T23:54:21.199Z,12.30
